This is the latest recevied weather packets stored in our database for station/object K7D3. If no packets are shown the sender has not sent any weather packets the latest 1 day(s).
| Time | Temp. | Humidity | Pressure | Rain* | Wind** | Luminosity | Snow |
|---|---|---|---|---|---|---|---|
| 1778102501 | 10.56° C | 38% | - | 0 mm | 4.47 m/s, 352° | - | - |
| 1778102019 | 11.67° C | 35% | - | 0 mm | 4.47 m/s, 301° | - | - |
| 1778099622 | 11.11° C | 35% | - | 0 mm | 6.26 m/s, 342° | - | - |
| 1778099140 | 11.11° C | 33% | - | 0 mm | 4.02 m/s, 357° | - | - |
| 1778096261 | 11.11° C | 35% | - | 0 mm | 4.47 m/s, 359° | - | - |
| 1778094343 | 10.56° C | 36% | - | 0 mm | 4.02 m/s, 326° | - | - |
| 1778090504 | 9.44° C | 37% | - | 0 mm | 5.81 m/s, 353° | - | - |
| 1778089547 | 9.44° C | 40% | - | 0 mm | 4.02 m/s, 345° | - | - |
| 1778089064 | 10° C | 40% | - | 0 mm | 3.13 m/s, 352° | - | - |
| 1778088585 | 10° C | 40% | - | 0 mm | 3.13 m/s, 339° | - | - |
| 1778087625 | 10° C | 39% | - | 0 mm | 4.02 m/s, 7° | - | - |
| 1778086668 | 10° C | 39% | - | 0 mm | 4.47 m/s, 297° | - | - |
| 1778086186 | 10° C | 40% | - | 0 mm | 4.02 m/s, 4° | - | - |
| 1778084269 | 10° C | 40% | - | 0 mm | 2.68 m/s, 45° | - | - |
| 1778082830 | 8.89° C | 40% | - | 0 mm | 4.02 m/s, 314° | - | - |
| 1778078991 | 8.33° C | 47% | - | 0 mm | 0 m/s | - | - |
| 1778078034 | 7.78° C | 46% | - | 0 mm | 2.68 m/s, 283° | - | - |
| 1778077552 | 8.33° C | 50% | - | 0 mm | 0 m/s | - | - |
| 1778073232 | 5.56° C | 62% | - | 0 mm | 1.34 m/s, 37° | - | - |
| 1778068910 | 1.67° C | 95% | - | 0 mm | 0 m/s | - | - |
| 1778066509 | -0.56° C | 95% | - | 0 mm | 0 m/s | - | - |
| 1778065546 | -1.67° C | 96% | - | 0 mm | 0 m/s | - | - |
| 1778064583 | -1.67° C | 96% | - | 0 mm | 0 m/s | - | - |
| 1778064103 | -5° C | 95% | - | 0 mm | 0 m/s | - | - |
| 1778063623 | -5° C | 95% | - | 0 mm | 0 m/s | - | - |
* Rain latest hour (hover to see other rain measurements)
** Current wind speed in m/s (hover to see current wind gust speed)